Valley Mills, Texas
Current Conditions -  °F | °C
As of 3:55 AM on Saturday 20 Dec 2014 (Local Time) from KPWG Reporting Station
Overcast Overcast  
Wind Chill:   Ceiling: 1700
Heat Index:   Visibility: 7mi
Dew Point:   Wind: 5mph
Humidity: 82%   Direction: 340°NNW
Pressure: 30.22"   Gusts: NA
Location:  31.66°N, 97.47°W
Report Text: KPWG 200955Z AUTO 34004KT 7SM SCT008 OVC017 09/06 A3022 RMK AO1
Loading
Personal Weather Stations






























Interactive Weather Map New forecast layout! Learn more

10-Day Weather Forecast

Advertisements
Track Severe Weather on mobile